Terminal Aerodrome Forecast
Issued by NWS St Louis, MO

Home | Current Version | Previous Version | Text Only | Print | Product List | Glossary On
Versions: 1 2 3 4 5 6 7 8 9 10 11 12 13 14 15 16 17 18 19 20 21
000
FTUS43 KLSX 021602 AAB
TAFCOU
TAF AMD
KCOU 021602Z 0216/0312 05008KT 5SM BR OVC005
     FM021800 04008KT P6SM OVC010
     FM030000 36009KT P6SM BKN020
     FM030100 36005KT P6SM SCT035 BKN120=

USA.gov is the U.S. government's official web portal to all federal, state and local government web resources and services.